Time;durP1;ratioP1;P1;durP2;ratioP2;P2;SDS_P1;SDS_P2;PMS_P1;PMS_P2;Temp;Humidity;BMP_temperature;BMP_pressure;BME280_temperature;BME280_humidity;BME280_pressure;Samples;Min_cycle;Max_cycle;Signal;HPM_P1;HPM_P2
2021/11/06 00:00:07;;;;;;;73.63;36.85;;;2.60;99.90;;;;;;6172555;23;20037;-88
2021/11/06 00:02:54;;;;;;;74.82;39.33;;;2.50;99.90;;;;;;6169319;23;20025;-87
2021/11/06 00:05:43;;;;;;;80.00;39.67;;;2.50;99.90;;;;;;6171691;23;20033;-89
2021/11/06 00:08:30;;;;;;;82.35;39.55;;;2.40;99.90;;;;;;6149093;23;20030;-88
2021/11/06 00:11:17;;;;;;;92.10;41.80;;;2.40;99.90;;;;;;6168653;23;20041;-88
2021/11/06 00:14:05;;;;;;;90.40;41.40;;;2.50;99.90;;;;;;6167501;23;20084;-87
2021/11/06 00:16:54;;;;;;;98.82;44.38;;;2.50;99.90;;;;;;6168316;23;20101;-90
2021/11/06 00:19:41;;;;;;;94.28;43.30;;;2.50;99.90;;;;;;6149350;23;20021;-88
2021/11/06 00:22:30;;;;;;;96.15;43.67;;;2.50;99.90;;;;;;6151042;23;20037;-87
2021/11/06 00:25:17;;;;;;;114.88;44.28;;;2.70;99.90;;;;;;6174737;23;20033;-89
2021/11/06 00:28:04;;;;;;;99.72;41.70;;;2.70;99.90;;;;;;6173303;23;20026;-89
2021/11/06 00:30:54;;;;;;;99.60;42.33;;;2.60;99.90;;;;;;6175559;23;20021;-87
2021/11/06 00:33:41;;;;;;;93.20;40.65;;;2.60;99.90;;;;;;6180689;23;20013;-87
2021/11/06 00:36:31;;;;;;;83.43;39.95;;;2.50;99.90;;;;;;6180135;23;20076;-87
2021/11/06 00:39:23;;;;;;;82.60;39.33;;;2.40;99.90;;;;;;6176685;23;20138;-87
2021/11/06 00:42:10;;;;;;;83.30;38.03;;;2.30;99.90;;;;;;6175466;23;20029;-87
2021/11/06 00:44:58;;;;;;;90.15;39.38;;;2.10;99.90;;;;;;6171269;23;20031;-88
2021/11/06 00:47:49;;;;;;;91.45;40.25;;;2.00;99.90;;;;;;6172008;23;20057;-87
2021/11/06 00:50:37;;;;;;;96.00;42.35;;;2.10;99.90;;;;;;6170425;23;20025;-87
2021/11/06 00:53:30;;;;;;;114.03;54.10;;;2.10;99.90;;;;;;6170549;23;20037;-88
2021/11/06 00:56:17;;;;;;;104.78;47.75;;;2.00;99.90;;;;;;6148777;23;20091;-87
2021/11/06 00:59:07;;;;;;;93.47;41.65;;;2.00;99.90;;;;;;6147528;23;20076;-86
2021/11/06 01:01:54;;;;;;;100.00;44.08;;;2.00;99.90;;;;;;6170142;23;20104;-87
2021/11/06 01:04:42;;;;;;;84.47;40.65;;;2.10;99.90;;;;;;6172922;23;20453;-87
2021/11/06 01:07:30;;;;;;;91.63;40.95;;;2.10;99.90;;;;;;6169832;23;20049;-87
2021/11/06 01:10:18;;;;;;;99.03;41.83;;;2.10;99.90;;;;;;6169980;23;20025;-88
2021/11/06 01:13:16;;;;;;;93.63;40.30;;;2.00;99.90;;;;;;6151059;23;20033;-86
2021/11/06 01:16:08;;;;;;;87.15;39.28;;;2.00;99.90;;;;;;6145637;23;20017;-89
2021/11/06 01:18:56;;;;;;;75.20;35.72;;;2.00;99.90;;;;;;6132452;23;20469;-88
2021/11/06 01:21:44;;;;;;;93.40;40.38;;;2.00;99.90;;;;;;6150666;23;20053;-85
2021/11/06 01:24:31;;;;;;;96.47;38.35;;;2.10;99.90;;;;;;6150226;23;20041;-89
2021/11/06 01:27:19;;;;;;;87.78;38.20;;;2.30;99.90;;;;;;6150269;23;20064;-89
2021/11/06 01:30:08;;;;;;;103.45;41.47;;;2.40;99.90;;;;;;6171534;23;20117;-87
2021/11/06 01:32:59;;;;;;;97.82;38.80;;;2.30;99.90;;;;;;6147242;23;20022;-87
2021/11/06 01:35:47;;;;;;;96.05;39.10;;;2.20;99.90;;;;;;6146716;23;20045;-87
2021/11/06 01:38:34;;;;;;;96.85;38.38;;;2.00;99.90;;;;;;6168995;23;20045;-86
2021/11/06 01:41:22;;;;;;;87.35;37.33;;;1.80;99.90;;;;;;6168733;23;20045;-87
2021/11/06 01:44:14;;;;;;;85.15;35.65;;;1.70;99.90;;;;;;6167229;23;20029;-87
2021/11/06 01:47:09;;;;;;;87.50;36.25;;;1.60;99.90;;;;;;6146312;23;20057;-87
2021/11/06 01:49:56;;;;;;;89.05;34.05;;;1.50;99.90;;;;;;6171654;23;20039;-86
2021/11/06 01:52:44;;;;;;;94.80;35.13;;;1.40;99.90;;;;;;6173232;23;20084;-86
2021/11/06 01:55:34;;;;;;;75.63;34.10;;;1.30;99.90;;;;;;6172525;23;20017;-86
2021/11/06 01:58:22;;;;;;;88.43;34.65;;;1.40;99.90;;;;;;6168512;23;20103;-87
2021/11/06 02:01:16;;;;;;;94.88;33.03;;;1.40;99.90;;;;;;6144731;23;20021;-87
2021/11/06 02:04:04;;;;;;;102.60;34.72;;;1.40;99.90;;;;;;6166820;23;20029;-87
2021/11/06 02:06:51;;;;;;;96.22;34.10;;;1.30;99.90;;;;;;6169782;23;20033;-88
2021/11/06 02:09:39;;;;;;;93.72;34.53;;;1.20;99.90;;;;;;6171103;23;20096;-87
2021/11/06 02:12:27;;;;;;;90.82;31.80;;;1.20;99.90;;;;;;6147499;23;20030;-87
2021/11/06 02:15:18;;;;;;;93.47;33.58;;;1.00;99.90;;;;;;6166767;23;20025;-87
2021/11/06 02:18:06;;;;;;;89.53;31.27;;;1.00;99.90;;;;;;6166747;23;20044;-87
2021/11/06 02:21:07;;;;;;;85.18;32.35;;;0.90;99.90;;;;;;6148546;23;20029;-87
2021/11/06 02:23:58;;;;;;;73.13;30.17;;;0.90;99.90;;;;;;6148752;23;20026;-87
2021/11/06 02:26:47;;;;;;;80.25;30.52;;;0.80;99.90;;;;;;6167803;23;20029;-87
2021/11/06 02:29:34;;;;;;;80.68;31.02;;;0.70;99.90;;;;;;6165523;23;20095;-86
2021/11/06 02:32:25;;;;;;;78.97;30.65;;;0.60;99.90;;;;;;6147283;23;20405;-87
2021/11/06 02:35:12;;;;;;;79.38;30.85;;;0.60;99.90;;;;;;6169848;23;20030;-86
2021/11/06 02:38:00;;;;;;;78.90;30.48;;;0.50;99.90;;;;;;6169569;23;20096;-86
2021/11/06 02:40:47;;;;;;;78.55;30.77;;;0.50;99.90;;;;;;6168229;23;20064;-87
2021/11/06 02:43:34;;;;;;;82.63;30.80;;;0.40;99.90;;;;;;6171247;23;20056;-88
2021/11/06 02:46:25;;;;;;;88.63;33.15;;;0.30;99.90;;;;;;6168578;23;20401;-86
2021/11/06 02:49:12;;;;;;;94.20;33.25;;;0.30;99.90;;;;;;6149461;23;20029;-88
2021/11/06 02:51:59;;;;;;;96.68;35.40;;;0.20;99.90;;;;;;6170871;23;20027;-87
2021/11/06 02:54:47;;;;;;;91.65;34.85;;;0.30;99.90;;;;;;6167371;23;20025;-86
2021/11/06 02:57:34;;;;;;;95.43;34.83;;;0.50;99.90;;;;;;6170212;23;20096;-88
2021/11/06 03:00:21;;;;;;;102.97;34.78;;;0.50;99.90;;;;;;6148294;23;20025;-88
2021/11/06 03:03:12;;;;;;;95.22;32.40;;;0.50;99.90;;;;;;6148194;23;20341;-88
2021/11/06 03:05:59;;;;;;;99.95;31.85;;;0.50;99.90;;;;;;6169939;23;20036;-86
2021/11/06 03:08:49;;;;;;;89.95;32.88;;;0.50;99.90;;;;;;6170493;23;20070;-87
2021/11/06 03:11:38;;;;;;;89.32;31.58;;;0.50;99.90;;;;;;6169550;23;20088;-87
2021/11/06 03:14:26;;;;;;;83.43;30.35;;;0.50;99.90;;;;;;6167547;23;20025;-86
2021/11/06 03:17:15;;;;;;;98.35;31.48;;;0.60;99.90;;;;;;6163064;23;20090;-87
2021/11/06 03:20:07;;;;;;;105.85;31.67;;;0.60;99.90;;;;;;6167877;23;20061;-87
2021/11/06 03:22:58;;;;;;;87.43;29.15;;;0.50;99.90;;;;;;6166456;23;20073;-86
2021/11/06 03:25:45;;;;;;;80.68;28.20;;;0.40;99.90;;;;;;6149774;23;20141;-87
2021/11/06 03:28:33;;;;;;;89.00;29.73;;;0.30;99.90;;;;;;6148830;23;20029;-87
2021/11/06 03:31:20;;;;;;;84.95;28.23;;;0.20;99.90;;;;;;6128698;23;20037;-87
2021/11/06 03:34:07;;;;;;;69.45;26.30;;;0.10;99.90;;;;;;6148914;23;20029;-86
2021/11/06 03:36:57;;;;;;;112.82;35.47;;;0.00;99.90;;;;;;6130028;23;20121;-86
2021/11/06 03:39:44;;;;;;;98.18;32.13;;;0.10;99.90;;;;;;6147622;23;20094;-86
2021/11/06 03:42:32;;;;;;;107.45;32.80;;;0.20;99.90;;;;;;6150113;23;20044;-86
2021/11/06 03:45:23;;;;;;;108.18;32.22;;;0.20;99.90;;;;;;6169740;23;20104;-84
2021/11/06 03:48:10;;;;;;;87.90;30.17;;;0.20;99.90;;;;;;6169624;23;20021;-86
2021/11/06 03:50:57;;;;;;;81.93;28.15;;;0.20;99.90;;;;;;6172094;23;20026;-88
2021/11/06 03:53:46;;;;;;;90.85;28.77;;;0.10;99.90;;;;;;6149017;23;20013;-89
2021/11/06 03:56:37;;;;;;;98.47;29.98;;;0.10;99.90;;;;;;6170410;23;20026;-88
2021/11/06 03:59:24;;;;;;;90.53;28.85;;;0.00;99.90;;;;;;6168127;23;20026;-87
2021/11/06 04:02:18;;;;;;;102.65;29.30;;;0.00;99.90;;;;;;6168001;23;20325;-88
2021/11/06 04:05:08;;;;;;;103.67;32.13;;;0.00;99.90;;;;;;6168472;23;20040;-86
2021/11/06 04:07:58;;;;;;;145.25;35.60;;;0.00;99.90;;;;;;6167286;23;20128;-88
2021/11/06 04:10:46;;;;;;;139.40;33.72;;;0.10;99.90;;;;;;6169714;23;20086;-88
2021/11/06 04:13:36;;;;;;;143.68;34.40;;;0.20;99.90;;;;;;6168816;23;20029;-88
2021/11/06 04:16:25;;;;;;;151.68;34.47;;;0.30;99.90;;;;;;6169729;23;20053;-87
2021/11/06 04:19:13;;;;;;;159.25;31.60;;;0.30;99.90;;;;;;6147519;23;20088;-88
2021/11/06 04:22:04;;;;;;;148.85;31.48;;;0.30;99.90;;;;;;6167908;23;20044;-87
2021/11/06 04:24:52;;;;;;;148.35;30.35;;;0.30;99.90;;;;;;6167662;23;20104;-88
2021/11/06 04:27:41;;;;;;;156.27;31.42;;;0.40;99.90;;;;;;6167972;23;20072;-88
2021/11/06 04:30:28;;;;;;;280.92;41.75;;;0.40;99.90;;;;;;6167891;23;20030;-88
2021/11/06 04:33:16;;;;;;;257.85;39.17;;;0.30;99.90;;;;;;6144094;23;20036;-87
2021/11/06 04:36:07;;;;;;;160.00;32.80;;;0.30;99.90;;;;;;6145302;23;20045;-87
2021/11/06 04:38:54;;;;;;;123.05;31.95;;;0.20;99.90;;;;;;6167506;23;20021;-87
2021/11/06 04:41:44;;;;;;;90.68;28.67;;;0.20;99.90;;;;;;6170207;23;20694;-87
2021/11/06 04:44:31;;;;;;;87.25;27.67;;;0.20;99.90;;;;;;6169180;23;20029;-88
2021/11/06 04:47:19;;;;;;;82.15;26.58;;;0.20;99.90;;;;;;6148380;23;20030;-88
2021/11/06 04:50:12;;;;;;;67.97;24.92;;;0.10;99.90;;;;;;6171508;23;20025;-87
2021/11/06 04:52:59;;;;;;;94.10;28.10;;;0.00;99.90;;;;;;6171294;23;20033;-87
2021/11/06 04:55:46;;;;;;;98.35;26.45;;;-0.10;99.90;;;;;;6150972;23;20045;-88
2021/11/06 04:58:34;;;;;;;117.95;27.15;;;-0.20;99.90;;;;;;6169499;23;20045;-87
2021/11/06 05:01:21;;;;;;;101.50;28.02;;;-0.30;99.90;;;;;;6170427;23;20413;-86
2021/11/06 05:04:09;;;;;;;99.55;30.98;;;-0.30;99.90;;;;;;6170348;23;20032;-86
2021/11/06 05:06:56;;;;;;;108.78;28.00;;;-0.20;99.90;;;;;;6150847;23;20443;-86
2021/11/06 05:09:45;;;;;;;164.68;30.60;;;-0.20;99.90;;;;;;6130199;23;20021;-88
2021/11/06 05:12:33;;;;;;;80.90;25.50;;;-0.10;99.90;;;;;;6169582;23;20080;-88
2021/11/06 05:15:20;;;;;;;88.18;25.25;;;0.00;99.90;;;;;;6146394;23;20021;-88
2021/11/06 05:18:09;;;;;;;88.70;26.38;;;0.00;99.90;;;;;;6147285;23;20030;-88
2021/11/06 05:20:56;;;;;;;89.50;25.42;;;0.00;99.90;;;;;;6148778;23;20057;-88
2021/11/06 05:23:44;;;;;;;94.28;26.48;;;-0.10;99.90;;;;;;6148162;23;20056;-87
2021/11/06 05:26:31;;;;;;;99.05;26.02;;;-0.10;99.90;;;;;;6152446;23;20107;-87
2021/11/06 05:29:21;;;;;;;104.93;30.67;;;-0.10;99.90;;;;;;6174890;23;20051;-87
2021/11/06 05:32:09;;;;;;;107.32;29.50;;;-0.20;99.90;;;;;;6169675;23;20100;-87
2021/11/06 05:34:57;;;;;;;538.15;47.47;;;-0.20;99.90;;;;;;6170563;23;20025;-87
2021/11/06 05:37:44;;;;;;;191.02;35.22;;;-0.20;99.90;;;;;;6175121;23;20091;-86
2021/11/06 05:40:34;;;;;;;130.93;31.77;;;-0.30;99.90;;;;;;6172871;23;20025;-87
2021/11/06 05:43:23;;;;;;;95.43;26.48;;;-0.30;99.90;;;;;;6154901;23;20040;-87
2021/11/06 05:46:12;;;;;;;118.05;27.35;;;-0.30;99.90;;;;;;6173153;23;20052;-89
2021/11/06 05:49:04;;;;;;;119.03;28.58;;;-0.30;99.90;;;;;;6172625;23;20057;-87
2021/11/06 05:52:01;;;;;;;119.40;28.13;;;-0.30;99.90;;;;;;6152174;23;20405;-87
2021/11/06 05:54:48;;;;;;;130.05;30.63;;;-0.30;99.90;;;;;;6172332;23;20025;-87
2021/11/06 05:57:35;;;;;;;160.60;32.92;;;-0.30;99.90;;;;;;6152025;23;20080;-87
2021/11/06 06:00:23;;;;;;;144.80;33.40;;;-0.30;99.90;;;;;;6175183;23;20029;-87
2021/11/06 06:03:10;;;;;;;105.45;30.30;;;-0.20;99.90;;;;;;6171023;23;20027;-87
2021/11/06 06:06:00;;;;;;;99.30;28.92;;;-0.20;99.90;;;;;;6149804;23;20354;-87
2021/11/06 06:08:50;;;;;;;180.52;33.03;;;-0.10;99.90;;;;;;6170220;23;20033;-88
2021/11/06 06:11:40;;;;;;;150.07;31.13;;;-0.10;99.90;;;;;;6145995;23;20325;-88
2021/11/06 06:14:28;;;;;;;167.88;31.67;;;-0.10;99.90;;;;;;6171446;23;20117;-87
2021/11/06 06:17:16;;;;;;;103.93;28.88;;;-0.10;99.90;;;;;;6127004;23;20021;-87
2021/11/06 06:20:09;;;;;;;130.85;27.75;;;-0.10;99.90;;;;;;6148552;23;20032;-84
2021/11/06 06:22:57;;;;;;;223.32;31.20;;;-0.10;99.90;;;;;;6171838;23;20057;-86
2021/11/06 06:25:44;;;;;;;230.00;30.35;;;-0.10;99.90;;;;;;6147589;23;20025;-86
2021/11/06 06:28:33;;;;;;;106.57;27.30;;;-0.10;99.90;;;;;;6139247;23;20025;-85
2021/11/06 06:32:04;;;;;;;197.20;30.88;;;-0.10;99.90;;;;;;6157518;23;20044;-88
2021/11/06 06:34:58;;;;;;;141.88;25.92;;;-0.20;99.90;;;;;;6157210;23;20025;-87
2021/11/06 06:37:49;;;;;;;101.93;24.77;;;-0.20;99.90;;;;;;6142364;23;20412;-87
2021/11/06 06:40:39;;;;;;;156.10;28.77;;;-0.20;99.90;;;;;;6160307;23;20037;-87
2021/11/06 06:43:27;;;;;;;97.57;26.52;;;-0.20;99.90;;;;;;6143975;23;20025;-86
2021/11/06 06:46:14;;;;;;;94.93;24.17;;;-0.20;99.90;;;;;;6148104;23;20443;-87
2021/11/06 06:49:03;;;;;;;102.22;22.38;;;-0.20;99.90;;;;;;6138955;23;20034;-86
2021/11/06 06:51:50;;;;;;;159.10;26.90;;;-0.10;99.90;;;;;;6162506;23;20030;-87
2021/11/06 06:54:40;;;;;;;93.15;21.13;;;-0.10;99.90;;;;;;6160084;23;20040;-85
2021/11/06 06:57:38;;;;;;;85.97;22.05;;;-0.10;99.90;;;;;;6135926;23;20424;-87
2021/11/06 07:00:25;;;;;;;111.93;22.25;;;0.00;99.90;;;;;;6160167;23;20051;-88
2021/11/06 07:03:13;;;;;;;82.22;22.95;;;0.10;99.90;;;;;;6165315;23;20025;-87
2021/11/06 07:06:01;;;;;;;97.47;23.10;;;0.20;99.90;;;;;;6139998;23;20025;-87
2021/11/06 07:08:49;;;;;;;175.43;24.33;;;0.30;99.90;;;;;;6158315;23;20045;-88
2021/11/06 07:11:39;;;;;;;128.90;23.88;;;0.30;99.90;;;;;;6158725;23;20025;-88
2021/11/06 07:14:29;;;;;;;433.15;36.80;;;0.30;99.90;;;;;;6155014;23;20041;-88
2021/11/06 07:17:17;;;;;;;181.18;29.67;;;0.30;99.90;;;;;;6157735;23;20338;-86
2021/11/06 07:20:06;;;;;;;220.45;28.75;;;0.30;99.90;;;;;;6117526;23;20025;-86
2021/11/06 07:22:53;;;;;;;374.38;33.83;;;0.30;99.90;;;;;;6136735;23;20025;-86
2021/11/06 07:25:40;;;;;;;263.08;31.17;;;0.30;99.90;;;;;;6159684;23;20101;-87
2021/11/06 07:28:30;;;;;;;590.00;47.65;;;0.30;99.90;;;;;;6159179;23;20037;-87
2021/11/06 07:31:19;;;;;;;677.70;53.78;;;0.30;99.90;;;;;;6161113;23;20030;-87
2021/11/06 07:34:09;;;;;;;306.73;35.63;;;0.30;99.90;;;;;;6139328;23;20025;-86
2021/11/06 07:36:56;;;;;;;112.40;23.60;;;0.40;99.90;;;;;;6153200;23;20380;-85
2021/11/06 07:39:52;;;;;;;499.58;39.00;;;0.40;99.90;;;;;;6137846;23;20027;-86
2021/11/06 07:42:45;;;;;;;562.20;47.88;;;0.50;99.90;;;;;;6162248;23;20057;-86
2021/11/06 07:45:35;;;;;;;213.05;28.05;;;0.60;99.90;;;;;;6135572;23;20123;-87
2021/11/06 07:48:25;;;;;;;290.75;33.47;;;0.60;99.90;;;;;;6155027;23;20033;-87
2021/11/06 07:51:16;;;;;;;110.10;25.92;;;0.80;99.90;;;;;;6133549;23;20060;-86
2021/11/06 07:54:08;;;;;;;273.02;32.60;;;1.00;99.90;;;;;;6153528;23;20109;-85
2021/11/06 07:56:56;;;;;;;138.18;25.65;;;1.10;99.90;;;;;;6153633;23;20076;-87
2021/11/06 07:59:44;;;;;;;200.93;28.80;;;1.20;99.90;;;;;;6157559;23;20025;-88
2021/11/06 08:02:32;;;;;;;547.25;46.95;;;1.40;99.90;;;;;;6154411;23;20025;-87
2021/11/06 08:05:26;;;;;;;322.05;34.80;;;1.50;99.90;;;;;;6155898;23;20133;-86
2021/11/06 08:08:13;;;;;;;77.60;21.45;;;1.70;99.90;;;;;;6156361;23;20029;-85
2021/11/06 08:11:03;;;;;;;136.18;21.92;;;1.80;99.90;;;;;;6155583;23;20037;-87
2021/11/06 08:13:50;;;;;;;149.48;22.85;;;1.70;99.90;;;;;;6157438;23;20044;-84
2021/11/06 08:16:37;;;;;;;112.80;20.90;;;1.50;99.90;;;;;;6156097;23;20029;-87
2021/11/06 08:19:24;;;;;;;72.18;19.45;;;1.50;99.90;;;;;;6161272;23;20026;-88
2021/11/06 08:22:14;;;;;;;88.53;21.73;;;1.70;99.90;;;;;;6134908;23;20032;-86
2021/11/06 08:25:04;;;;;;;85.00;18.05;;;1.80;99.90;;;;;;6130811;23;20040;-86
2021/11/06 08:27:53;;;;;;;119.97;19.08;;;1.70;99.90;;;;;;6125465;23;20026;-85
2021/11/06 08:30:41;;;;;;;95.82;17.80;;;1.60;99.90;;;;;;6125200;23;20026;-86
2021/11/06 08:33:32;;;;;;;126.45;18.20;;;1.80;99.90;;;;;;6104021;23;20022;-85
2021/11/06 08:36:19;;;;;;;77.88;17.55;;;1.90;99.90;;;;;;6104712;23;20098;-83
2021/11/06 08:39:08;;;;;;;83.50;18.92;;;2.00;99.90;;;;;;6127286;23;20049;-86
2021/11/06 08:41:57;;;;;;;70.10;18.27;;;2.20;99.90;;;;;;6136326;23;20022;-87
2021/11/06 08:44:51;;;;;;;86.10;18.92;;;2.30;99.90;;;;;;6126366;23;20045;-87
2021/11/06 08:47:39;;;;;;;52.25;16.45;;;2.30;99.90;;;;;;6105089;23;20038;-87
2021/11/06 08:50:27;;;;;;;51.33;16.27;;;2.40;99.90;;;;;;6126832;23;20096;-86
2021/11/06 08:53:15;;;;;;;54.95;16.63;;;2.50;99.90;;;;;;6135460;23;20108;-85
2021/11/06 08:56:05;;;;;;;57.60;18.65;;;2.60;99.90;;;;;;6138918;23;20444;-87
2021/11/06 08:58:54;;;;;;;103.25;26.33;;;2.70;99.90;;;;;;6143232;23;20031;-87
2021/11/06 09:01:42;;;;;;;76.47;23.55;;;3.00;99.90;;;;;;6142693;23;20022;-86
2021/11/06 09:04:29;;;;;;;193.25;27.98;;;3.30;99.90;;;;;;6141052;23;20049;-88
2021/11/06 09:07:19;;;;;;;207.95;24.60;;;3.50;99.90;;;;;;6140998;23;20109;-86
2021/11/06 09:10:11;;;;;;;198.77;27.33;;;3.60;99.90;;;;;;6142902;23;20037;-85
2021/11/06 09:13:03;;;;;;;161.18;24.65;;;3.60;99.90;;;;;;6124770;23;20044;-87
2021/11/06 09:15:50;;;;;;;109.70;22.65;;;3.70;99.90;;;;;;6125740;23;20017;-85
2021/11/06 09:18:39;;;;;;;121.82;20.30;;;4.00;99.90;;;;;;6138164;23;20026;-87
2021/11/06 09:21:29;;;;;;;126.65;16.08;;;4.00;99.90;;;;;;6134376;23;20100;-87
2021/11/06 09:24:19;;;;;;;85.80;17.55;;;3.90;99.90;;;;;;6134578;23;20026;-87
2021/11/06 09:27:12;;;;;;;166.32;16.25;;;3.90;99.90;;;;;;6134035;23;20022;-86
2021/11/06 09:29:59;;;;;;;79.63;16.08;;;4.00;99.90;;;;;;6115427;23;20093;-87
2021/11/06 09:32:50;;;;;;;73.82;14.95;;;4.00;99.90;;;;;;6135519;23;20026;-87
2021/11/06 09:35:37;;;;;;;57.10;14.10;;;4.20;99.90;;;;;;6136111;23;20065;-88
2021/11/06 09:38:25;;;;;;;67.25;12.02;;;4.40;99.90;;;;;;6112343;23;20026;-86
2021/11/06 09:41:12;;;;;;;115.40;13.23;;;4.50;99.90;;;;;;6131590;23;20057;-88
2021/11/06 09:44:00;;;;;;;89.05;13.20;;;4.60;99.90;;;;;;6114250;23;20077;-88
2021/11/06 09:46:53;;;;;;;42.25;13.40;;;4.70;99.90;;;;;;6134115;23;20475;-87
2021/11/06 09:49:41;;;;;;;28.75;12.05;;;5.00;99.90;;;;;;6136038;23;20026;-88
2021/11/06 09:52:32;;;;;;;45.00;14.60;;;5.10;99.90;;;;;;6138082;23;20030;-88
2021/11/06 09:55:22;;;;;;;44.60;13.88;;;5.30;99.90;;;;;;6124170;23;20061;-87
2021/11/06 09:58:11;;;;;;;50.92;15.38;;;5.40;99.90;;;;;;6144230;23;20040;-87
2021/11/06 10:00:59;;;;;;;48.10;15.50;;;5.30;99.90;;;;;;6142937;23;20033;-88
2021/11/06 10:03:46;;;;;;;80.28;15.32;;;5.40;99.90;;;;;;6120345;23;20021;-86
2021/11/06 10:06:38;;;;;;;49.45;15.68;;;5.60;99.90;;;;;;6147884;23;20029;-88
2021/11/06 10:09:29;;;;;;;66.18;16.98;;;5.60;99.90;;;;;;6136461;23;20085;-87
2021/11/06 10:12:16;;;;;;;58.33;16.13;;;5.60;99.90;;;;;;6132638;23;20436;-86
2021/11/06 10:15:09;;;;;;;33.72;17.13;;;5.60;99.90;;;;;;6113055;23;20029;-87
2021/11/06 10:18:13;;;;;;;27.95;11.45;;;5.80;99.90;;;;;;6132191;23;20341;-87
2021/11/06 10:21:04;;;;;;;32.45;16.23;;;6.10;99.90;;;;;;6125246;23;20022;-85
2021/11/06 10:23:51;;;;;;;32.58;17.20;;;6.20;99.90;;;;;;6124255;23;20036;-88
2021/11/06 10:26:42;;;;;;;37.58;17.05;;;6.40;99.90;;;;;;6104368;23;20286;-87
2021/11/06 10:29:38;;;;;;;56.45;18.10;;;6.30;99.90;;;;;;6123954;23;20029;-88
2021/11/06 10:32:28;;;;;;;37.95;19.73;;;6.20;99.90;;;;;;6106646;23;20030;-88
2021/11/06 10:35:21;;;;;;;32.15;17.95;;;6.30;99.90;;;;;;6126115;23;20037;-88
2021/11/06 10:38:16;;;;;;;39.10;21.25;;;6.40;99.90;;;;;;6124446;23;20414;-89
2021/11/06 10:41:06;;;;;;;42.35;22.13;;;6.50;99.90;;;;;;6104888;23;20397;-88
2021/11/06 10:43:54;;;;;;;47.05;20.88;;;6.60;99.90;;;;;;6106748;23;20109;-89
2021/11/06 10:46:52;;;;;;;38.28;20.95;;;6.70;99.90;;;;;;6106510;23;20370;-89
2021/11/06 10:49:48;;;;;;;67.97;22.00;;;6.90;99.90;;;;;;6101387;23;20033;-88
2021/11/06 10:52:46;;;;;;;53.95;21.95;;;6.90;99.90;;;;;;6107461;23;20036;-87
2021/11/06 10:55:40;;;;;;;36.88;21.85;;;6.80;99.90;;;;;;6123496;23;20030;-88
2021/11/06 10:58:33;;;;;;;43.70;21.95;;;6.90;99.90;;;;;;6126609;23;20586;-88
2021/11/06 11:01:25;;;;;;;41.47;23.40;;;7.10;99.90;;;;;;6124929;23;20030;-89
2021/11/06 11:04:17;;;;;;;37.00;23.00;;;7.30;99.90;;;;;;6129237;23;20393;-89
2021/11/06 11:07:17;;;;;;;43.33;24.17;;;7.20;99.90;;;;;;6112499;23;20076;-88
2021/11/06 11:10:24;;;;;;;39.28;23.38;;;7.40;99.90;;;;;;6129842;23;20034;-88
2021/11/06 11:13:17;;;;;;;43.03;25.15;;;7.70;99.90;;;;;;6126974;23;20042;-87
2021/11/06 11:16:14;;;;;;;41.17;24.98;;;7.90;99.90;;;;;;6106492;23;20406;-87
2021/11/06 11:19:09;;;;;;;42.08;25.92;;;8.00;99.90;;;;;;6087907;23;20129;-88
2021/11/06 11:21:56;;;;;;;40.53;25.08;;;8.20;99.90;;;;;;6125913;23;20030;-87
2021/11/06 11:24:48;;;;;;;40.47;25.20;;;8.40;99.90;;;;;;6133604;23;20048;-86
2021/11/06 11:27:41;;;;;;;38.05;24.17;;;8.70;99.90;;;;;;6166509;23;20089;-86
2021/11/06 11:30:29;;;;;;;42.20;26.25;;;8.90;99.90;;;;;;6146539;23;20026;-88
2021/11/06 11:33:17;;;;;;;40.00;24.65;;;9.30;99.90;;;;;;6141169;23;20096;-89
2021/11/06 11:36:07;;;;;;;37.40;23.45;;;9.90;99.90;;;;;;6134146;23;20029;-86
2021/11/06 11:38:56;;;;;;;35.80;23.13;;;10.60;99.90;;;;;;6134984;23;20021;-86
2021/11/06 11:41:51;;;;;;;33.55;23.15;;;11.50;99.90;;;;;;6154731;23;20036;-87
2021/11/06 11:45:00;;;;;;;34.13;22.90;;;12.70;99.90;;;;;;6156327;23;20037;-87
2021/11/06 11:47:53;;;;;;;27.48;20.63;;;14.10;99.90;;;;;;6156380;23;20040;-87
2021/11/06 11:50:45;;;;;;;28.55;20.02;;;15.40;93.50;;;;;;6160850;23;20369;-87
2021/11/06 11:53:34;;;;;;;29.15;21.50;;;16.40;85.80;;;;;;6165362;23;20120;-86
2021/11/06 11:56:26;;;;;;;25.13;19.15;;;16.70;80.40;;;;;;6147684;23;20032;-87
2021/11/06 11:59:31;;;;;;;28.03;20.50;;;17.40;76.30;;;;;;6147779;23;20029;-87
2021/11/06 12:02:31;;;;;;;26.77;19.45;;;18.40;70.40;;;;;;6167071;23;20251;-88
2021/11/06 12:05:21;;;;;;;27.05;19.83;;;18.70;66.10;;;;;;6166350;23;20314;-88
2021/11/06 12:08:20;;;;;;;25.13;19.48;;;18.70;65.30;;;;;;6165552;23;20033;-88
2021/11/06 12:11:20;;;;;;;29.45;20.75;;;19.90;61.70;;;;;;6166984;23;20032;-87
2021/11/06 12:14:28;;;;;;;23.80;17.95;;;20.60;57.90;;;;;;6168976;23;20029;-87
2021/11/06 12:17:34;;;;;;;26.25;20.50;;;20.60;57.20;;;;;;6167303;23;20040;-88
2021/11/06 12:20:25;;;;;;;25.30;19.00;;;20.20;56.50;;;;;;6169825;23;20036;-89
2021/11/06 12:23:30;;;;;;;23.88;20.10;;;19.90;58.90;;;;;;6146258;23;20056;-89
2021/11/06 12:26:17;;;;;;;23.05;18.40;;;20.00;57.90;;;;;;6167751;23;20029;-88
2021/11/06 12:29:11;;;;;;;23.85;18.98;;;20.40;56.40;;;;;;6165016;23;20059;-89
2021/11/06 12:32:20;;;;;;;25.95;19.83;;;20.70;55.70;;;;;;6167661;23;20487;-88
2021/11/06 12:35:11;;;;;;;26.02;20.58;;;20.50;54.60;;;;;;6167512;23;20029;-87
2021/11/06 12:38:02;;;;;;;28.05;20.58;;;20.00;55.80;;;;;;6165582;23;20025;-88
2021/11/06 12:40:55;;;;;;;23.83;19.75;;;20.10;56.70;;;;;;6168227;23;20045;-88
2021/11/06 12:43:51;;;;;;;24.50;19.52;;;20.60;55.20;;;;;;6167816;23;20411;-88
2021/11/06 12:46:41;;;;;;;23.50;19.00;;;21.00;52.80;;;;;;6168788;23;20029;-89
2021/11/06 12:49:28;;;;;;;24.63;19.10;;;20.30;54.90;;;;;;6146000;23;20026;-88
2021/11/06 12:52:21;;;;;;;22.73;17.77;;;19.70;55.50;;;;;;6145186;23;20033;-87
2021/11/06 12:55:09;;;;;;;22.98;18.45;;;20.30;53.80;;;;;;6146258;23;20097;-88
2021/11/06 12:57:56;;;;;;;23.40;18.40;;;19.70;55.50;;;;;;6169068;23;20022;-88
2021/11/06 13:00:46;;;;;;;22.10;18.42;;;19.80;55.30;;;;;;6124702;23;20129;-88
2021/11/06 13:03:44;;;;;;;25.88;17.95;;;20.70;53.30;;;;;;6147054;23;20124;-89
2021/11/06 13:06:36;;;;;;;20.65;16.05;;;20.90;52.80;;;;;;6149108;23;20041;-87
2021/11/06 13:09:25;;;;;;;20.75;17.00;;;21.00;51.00;;;;;;6149942;23;20029;-88
2021/11/06 13:12:17;;;;;;;;;;;20.60;51.10;;;;;;6173273;23;20049;-88
2021/11/06 13:15:06;;;;;;;18.58;14.38;;;20.50;50.60;;;;;;6147556;23;19936;-90
2021/11/06 13:17:53;;;;;;;17.88;14.95;;;20.90;49.30;;;;;;6145911;23;20029;-88
2021/11/06 13:20:48;;;;;;;17.27;14.00;;;21.40;48.30;;;;;;6171226;23;20294;-89
2021/11/06 13:23:35;;;;;;;18.35;14.32;;;21.80;48.00;;;;;;6162659;23;20053;-89
2021/11/06 13:26:23;;;;;;;17.92;14.90;;;20.60;50.80;;;;;;6120888;23;20105;-89
2021/11/06 13:29:20;;;;;;;18.80;14.52;;;19.50;52.80;;;;;;6139396;23;20061;-88
2021/11/06 13:32:08;;;;;;;17.35;13.52;;;19.20;54.70;;;;;;6141305;23;20045;-89
2021/11/06 13:34:55;;;;;;;18.08;13.75;;;18.60;54.50;;;;;;6118019;23;20047;-88
2021/11/06 13:37:43;;;;;;;18.73;13.73;;;19.90;53.40;;;;;;6141088;23;20032;-88
2021/11/06 13:40:45;;;;;;;18.38;14.13;;;20.30;51.70;;;;;;6119749;23;20026;-88
2021/11/06 13:43:40;;;;;;;21.15;14.65;;;20.10;51.70;;;;;;6137464;23;20125;-87
2021/11/06 13:46:42;;;;;;;14.85;11.70;;;18.20;55.80;;;;;;6139405;23;20081;-88
2021/11/06 13:49:35;;;;;;;17.00;12.63;;;18.40;55.30;;;;;;6139372;23;20026;-88
2021/11/06 13:52:22;;;;;;;17.42;12.35;;;18.60;55.00;;;;;;6117107;23;20033;-87
2021/11/06 13:55:11;;;;;;;17.40;12.63;;;19.30;52.90;;;;;;6096947;23;20029;-88
2021/11/06 13:58:01;;;;;;;18.98;14.60;;;19.70;52.50;;;;;;6141470;23;20057;-89
2021/11/06 14:00:50;;;;;;;20.80;15.57;;;20.30;51.90;;;;;;6141551;23;20022;-88
2021/11/06 14:03:38;;;;;;;20.75;15.25;;;19.80;53.70;;;;;;6137908;23;20029;-88
2021/11/06 14:06:40;;;;;;;19.17;15.40;;;19.00;55.60;;;;;;6142534;23;20030;-86
2021/11/06 14:09:28;;;;;;;;;;;19.00;55.80;;;;;;6140452;23;20037;-86
2021/11/06 14:12:20;;;;;;;19.15;13.63;;;19.30;54.40;;;;;;6140570;23;19917;-87
2021/11/06 14:15:13;;;;;;;17.92;13.68;;;18.80;55.00;;;;;;6136508;23;20030;-88
2021/11/06 14:18:04;;;;;;;16.13;13.65;;;18.60;55.70;;;;;;6139664;23;20429;-88
2021/11/06 14:20:57;;;;;;;14.40;12.00;;;19.30;54.80;;;;;;6119669;23;20081;-88
2021/11/06 14:23:46;;;;;;;15.43;12.82;;;19.20;54.70;;;;;;6150041;23;20041;-89
2021/11/06 14:26:48;;;;;;;14.48;11.98;;;18.50;54.60;;;;;;6129548;23;20033;-88